sensor_id;sensor_type;location;lat;lon;timestamp;temperature;humidity
13205;DHT22;6667;52.634;9.226;2022-11-14T08:40:00;6.50;99.90
13205;DHT22;6667;52.634;9.226;2022-11-14T08:42:27;6.50;99.90
13205;DHT22;6667;52.634;9.226;2022-11-14T08:44:54;6.60;99.90
13205;DHT22;6667;52.634;9.226;2022-11-14T08:47:20;6.60;99.90
13205;DHT22;6667;52.634;9.226;2022-11-14T08:49:47;6.60;99.90
13205;DHT22;6667;52.634;9.226;2022-11-14T08:52:14;6.60;99.90
13205;DHT22;6667;52.634;9.226;2022-11-14T08:54:41;6.60;99.90
13205;DHT22;6667;52.634;9.226;2022-11-14T08:57:09;6.60;99.90
13205;DHT22;6667;52.634;9.226;2022-11-14T08:59:36;6.60;99.90
13205;DHT22;6667;52.634;9.226;2022-11-14T09:02:03;6.60;99.90
13205;DHT22;6667;52.634;9.226;2022-11-14T09:04:30;6.60;99.90
13205;DHT22;6667;52.634;9.226;2022-11-14T09:06:57;6.60;99.90
13205;DHT22;6667;52.634;9.226;2022-11-14T09:09:24;6.60;99.90
13205;DHT22;6667;52.634;9.226;2022-11-14T09:11:50;6.70;99.90
13205;DHT22;6667;52.634;9.226;2022-11-14T09:14:19;6.80;99.90
13205;DHT22;6667;52.634;9.226;2022-11-14T09:16:46;6.80;99.90
13205;DHT22;6667;52.634;9.226;2022-11-14T09:19:13;6.80;99.90
13205;DHT22;6667;52.634;9.226;2022-11-14T09:21:40;6.80;99.90
13205;DHT22;6667;52.634;9.226;2022-11-14T09:24:07;6.70;99.90
13205;DHT22;6667;52.634;9.226;2022-11-14T09:26:33;6.70;99.90
13205;DHT22;6667;52.634;9.226;2022-11-14T09:29:00;6.70;99.90
13205;DHT22;6667;52.634;9.226;2022-11-14T09:31:28;6.70;99.90
13205;DHT22;6667;52.634;9.226;2022-11-14T09:33:55;6.70;99.90
13205;DHT22;6667;52.634;9.226;2022-11-14T09:36:21;6.70;99.90
13205;DHT22;6667;52.634;9.226;2022-11-14T09:38:50;6.80;99.90
13205;DHT22;6667;52.634;9.226;2022-11-14T09:41:22;6.80;99.90
13205;DHT22;6667;52.634;9.226;2022-11-14T09:44:31;6.90;99.90
13205;DHT22;6667;52.634;9.226;2022-11-14T09:47:09;6.80;99.90
13205;DHT22;6667;52.634;9.226;2022-11-14T09:49:38;6.90;99.90
13205;DHT22;6667;52.634;9.226;2022-11-14T09:52:12;6.90;99.90
13205;DHT22;6667;52.634;9.226;2022-11-14T09:54:46;6.90;99.90
13205;DHT22;6667;52.634;9.226;2022-11-14T09:57:17;7.00;99.90
13205;DHT22;6667;52.634;9.226;2022-11-14T09:59:45;7.00;99.90
13205;DHT22;6667;52.634;9.226;2022-11-14T10:02:23;7.00;99.90
13205;DHT22;6667;52.634;9.226;2022-11-14T10:05:07;7.00;99.90
13205;DHT22;6667;52.634;9.226;2022-11-14T10:07:43;7.10;99.90
13205;DHT22;6667;52.634;9.226;2022-11-14T10:10:20;7.00;99.90
13205;DHT22;6667;52.634;9.226;2022-11-14T10:12:57;6.80;99.90
13205;DHT22;6667;52.634;9.226;2022-11-14T10:15:30;6.80;99.90
13205;DHT22;6667;52.634;9.226;2022-11-14T10:18:14;6.90;99.90
13205;DHT22;6667;52.634;9.226;2022-11-14T10:20:49;6.90;99.90
13205;DHT22;6667;52.634;9.226;2022-11-14T10:23:27;7.00;99.90
13205;DHT22;6667;52.634;9.226;2022-11-14T10:26:03;7.00;99.90
13205;DHT22;6667;52.634;9.226;2022-11-14T10:28:45;7.00;99.90
13205;DHT22;6667;52.634;9.226;2022-11-14T10:31:21;6.90;99.90
13205;DHT22;6667;52.634;9.226;2022-11-14T10:33:56;7.00;99.90
13205;DHT22;6667;52.634;9.226;2022-11-14T10:36:33;7.20;99.90
13205;DHT22;6667;52.634;9.226;2022-11-14T10:39:08;7.20;99.90
13205;DHT22;6667;52.634;9.226;2022-11-14T10:41:37;7.30;99.90
13205;DHT22;6667;52.634;9.226;2022-11-14T10:44:10;7.30;99.90
13205;DHT22;6667;52.634;9.226;2022-11-14T10:46:42;7.40;99.90
13205;DHT22;6667;52.634;9.226;2022-11-14T10:49:18;7.30;99.90
13205;DHT22;6667;52.634;9.226;2022-11-14T10:51:50;7.50;99.90
13205;DHT22;6667;52.634;9.226;2022-11-14T10:54:21;7.50;99.90
13205;DHT22;6667;52.634;9.226;2022-11-14T10:56:52;7.70;99.90
13205;DHT22;6667;52.634;9.226;2022-11-14T10:59:20;7.80;99.90
13205;DHT22;6667;52.634;9.226;2022-11-14T11:01:53;7.90;99.90
13205;DHT22;6667;52.634;9.226;2022-11-14T11:04:25;8.10;99.90
13205;DHT22;6667;52.634;9.226;2022-11-14T11:06:53;8.00;99.90
13205;DHT22;6667;52.634;9.226;2022-11-14T11:09:22;8.30;99.90
13205;DHT22;6667;52.634;9.226;2022-11-14T11:12:08;8.30;99.90
13205;DHT22;6667;52.634;9.226;2022-11-14T11:14:39;8.60;99.90
13205;DHT22;6667;52.634;9.226;2022-11-14T11:17:20;8.60;99.90
13205;DHT22;6667;52.634;9.226;2022-11-14T11:19:50;8.70;99.90
13205;DHT22;6667;52.634;9.226;2022-11-14T11:22:29;8.50;99.90
13205;DHT22;6667;52.634;9.226;2022-11-14T11:25:00;8.50;99.90
13205;DHT22;6667;52.634;9.226;2022-11-14T11:27:28;8.60;99.90
13205;DHT22;6667;52.634;9.226;2022-11-14T11:30:17;8.80;99.90
13205;DHT22;6667;52.634;9.226;2022-11-14T11:32:44;8.90;99.90
13205;DHT22;6667;52.634;9.226;2022-11-14T11:35:13;8.60;99.90
13205;DHT22;6667;52.634;9.226;2022-11-14T11:37:45;8.50;99.90
13205;DHT22;6667;52.634;9.226;2022-11-14T11:40:19;8.40;99.90
13205;DHT22;6667;52.634;9.226;2022-11-14T11:42:54;8.30;99.90
13205;DHT22;6667;52.634;9.226;2022-11-14T11:45:23;8.50;99.90
13205;DHT22;6667;52.634;9.226;2022-11-14T11:47:54;8.50;99.90
13205;DHT22;6667;52.634;9.226;2022-11-14T11:50:23;8.80;99.90
13205;DHT22;6667;52.634;9.226;2022-11-14T11:52:58;8.50;99.90
13205;DHT22;6667;52.634;9.226;2022-11-14T11:55:28;8.50;99.90
13205;DHT22;6667;52.634;9.226;2022-11-14T11:58:01;8.60;99.90
13205;DHT22;6667;52.634;9.226;2022-11-14T12:00:30;8.60;99.90
13205;DHT22;6667;52.634;9.226;2022-11-14T12:02:58;8.50;99.90
13205;DHT22;6667;52.634;9.226;2022-11-14T12:05:33;8.70;99.90
13205;DHT22;6667;52.634;9.226;2022-11-14T12:08:10;8.80;99.90
13205;DHT22;6667;52.634;9.226;2022-11-14T12:10:40;8.50;99.90
13205;DHT22;6667;52.634;9.226;2022-11-14T12:13:43;8.50;99.90
13205;DHT22;6667;52.634;9.226;2022-11-14T12:16:20;8.80;99.90
13205;DHT22;6667;52.634;9.226;2022-11-14T12:19:05;8.70;99.90
13205;DHT22;6667;52.634;9.226;2022-11-14T12:22:02;8.80;99.90
13205;DHT22;6667;52.634;9.226;2022-11-14T12:25:00;8.70;99.90
13205;DHT22;6667;52.634;9.226;2022-11-14T12:27:40;8.70;99.90
13205;DHT22;6667;52.634;9.226;2022-11-14T12:30:13;8.60;99.90
13205;DHT22;6667;52.634;9.226;2022-11-14T12:32:45;8.60;99.90
13205;DHT22;6667;52.634;9.226;2022-11-14T12:35:17;8.70;99.90
13205;DHT22;6667;52.634;9.226;2022-11-14T12:37:49;8.80;99.90
13205;DHT22;6667;52.634;9.226;2022-11-14T12:40:23;8.70;99.90
13205;DHT22;6667;52.634;9.226;2022-11-14T12:42:51;8.60;99.90
13205;DHT22;6667;52.634;9.226;2022-11-14T12:45:56;8.90;99.90
13205;DHT22;6667;52.634;9.226;2022-11-14T12:48:29;9.00;99.90
13205;DHT22;6667;52.634;9.226;2022-11-14T12:50:57;9.10;99.90
13205;DHT22;6667;52.634;9.226;2022-11-14T12:53:42;9.20;99.90
13205;DHT22;6667;52.634;9.226;2022-11-14T12:56:50;9.20;99.90
13205;DHT22;6667;52.634;9.226;2022-11-14T12:59:34;9.10;99.90
13205;DHT22;6667;52.634;9.226;2022-11-14T13:02:35;9.10;99.90
13205;DHT22;6667;52.634;9.226;2022-11-14T13:11:34;9.60;99.90
13205;DHT22;6667;52.634;9.226;2022-11-14T13:14:19;9.50;99.90
13205;DHT22;6667;52.634;9.226;2022-11-14T13:17:22;9.50;99.90
13205;DHT22;6667;52.634;9.226;2022-11-14T13:20:26;9.30;99.90
13205;DHT22;6667;52.634;9.226;2022-11-14T13:26:38;9.30;99.90
13205;DHT22;6667;52.634;9.226;2022-11-14T13:29:05;9.30;99.90
13205;DHT22;6667;52.634;9.226;2022-11-14T13:31:45;9.60;99.90
13205;DHT22;6667;52.634;9.226;2022-11-14T13:34:32;9.40;99.90
13205;DHT22;6667;52.634;9.226;2022-11-14T13:37:10;9.40;99.90
13205;DHT22;6667;52.634;9.226;2022-11-14T13:39:46;9.40;99.90
13205;DHT22;6667;52.634;9.226;2022-11-14T13:42:29;9.30;99.90
13205;DHT22;6667;52.634;9.226;2022-11-14T13:45:31;9.30;99.90
13205;DHT22;6667;52.634;9.226;2022-11-14T13:48:18;9.40;99.90
13205;DHT22;6667;52.634;9.226;2022-11-14T13:50:50;9.40;99.90
13205;DHT22;6667;52.634;9.226;2022-11-14T13:53:20;9.40;99.90
13205;DHT22;6667;52.634;9.226;2022-11-14T13:55:59;9.30;99.90
13205;DHT22;6667;52.634;9.226;2022-11-14T13:58:58;9.30;99.90
13205;DHT22;6667;52.634;9.226;2022-11-14T14:01:41;9.30;99.90
13205;DHT22;6667;52.634;9.226;2022-11-14T14:04:22;9.20;99.90
13205;DHT22;6667;52.634;9.226;2022-11-14T14:07:00;9.20;99.90
13205;DHT22;6667;52.634;9.226;2022-11-14T14:09:35;9.20;99.90
13205;DHT22;6667;52.634;9.226;2022-11-14T14:12:25;9.20;99.90
13205;DHT22;6667;52.634;9.226;2022-11-14T14:15:04;9.10;99.90
13205;DHT22;6667;52.634;9.226;2022-11-14T14:17:43;9.10;99.90
13205;DHT22;6667;52.634;9.226;2022-11-14T14:20:19;9.10;99.90
13205;DHT22;6667;52.634;9.226;2022-11-14T14:22:54;9.10;99.90
13205;DHT22;6667;52.634;9.226;2022-11-14T14:25:26;9.10;99.90
13205;DHT22;6667;52.634;9.226;2022-11-14T14:28:05;9.00;99.90
13205;DHT22;6667;52.634;9.226;2022-11-14T14:30:35;9.00;99.90
13205;DHT22;6667;52.634;9.226;2022-11-14T14:33:12;9.00;99.90
13205;DHT22;6667;52.634;9.226;2022-11-14T14:35:49;9.00;99.90
13205;DHT22;6667;52.634;9.226;2022-11-14T14:38:22;8.90;99.90
13205;DHT22;6667;52.634;9.226;2022-11-14T14:40:53;8.90;99.90
13205;DHT22;6667;52.634;9.226;2022-11-14T14:43:23;8.80;99.90
13205;DHT22;6667;52.634;9.226;2022-11-14T14:45:52;8.80;99.90
13205;DHT22;6667;52.634;9.226;2022-11-14T14:48:23;8.70;99.90
13205;DHT22;6667;52.634;9.226;2022-11-14T14:50:52;8.70;99.90
13205;DHT22;6667;52.634;9.226;2022-11-14T14:53:20;8.70;99.90
13205;DHT22;6667;52.634;9.226;2022-11-14T14:55:53;8.70;99.90
13205;DHT22;6667;52.634;9.226;2022-11-14T14:58:25;8.70;99.90
13205;DHT22;6667;52.634;9.226;2022-11-14T15:00:55;8.70;99.90
13205;DHT22;6667;52.634;9.226;2022-11-14T15:03:24;8.50;99.90
13205;DHT22;6667;52.634;9.226;2022-11-14T15:05:59;8.50;99.90
13205;DHT22;6667;52.634;9.226;2022-11-14T15:08:28;8.40;99.90
13205;DHT22;6667;52.634;9.226;2022-11-14T15:10:57;8.30;99.90
13205;DHT22;6667;52.634;9.226;2022-11-14T15:13:26;8.30;99.90
13205;DHT22;6667;52.634;9.226;2022-11-14T15:15:55;8.20;99.90
13205;DHT22;6667;52.634;9.226;2022-11-14T15:18:24;8.20;99.90
13205;DHT22;6667;52.634;9.226;2022-11-14T15:21:09;8.10;99.90
13205;DHT22;6667;52.634;9.226;2022-11-14T15:23:36;8.10;99.90
13205;DHT22;6667;52.634;9.226;2022-11-14T15:26:09;8.10;99.90
13205;DHT22;6667;52.634;9.226;2022-11-14T15:28:36;8.00;99.90
13205;DHT22;6667;52.634;9.226;2022-11-14T15:31:05;7.90;99.90
13205;DHT22;6667;52.634;9.226;2022-11-14T15:33:33;7.90;99.90
13205;DHT22;6667;52.634;9.226;2022-11-14T15:36:05;7.90;99.90
13205;DHT22;6667;52.634;9.226;2022-11-14T15:38:32;7.90;99.90
13205;DHT22;6667;52.634;9.226;2022-11-14T15:41:17;7.80;99.90
13205;DHT22;6667;52.634;9.226;2022-11-14T15:43:49;7.80;99.90
13205;DHT22;6667;52.634;9.226;2022-11-14T15:46:42;7.70;99.90
13205;DHT22;6667;52.634;9.226;2022-11-14T15:49:19;7.70;99.90
13205;DHT22;6667;52.634;9.226;2022-11-14T15:51:48;7.60;99.90
13205;DHT22;6667;52.634;9.226;2022-11-14T15:54:27;7.60;99.90
13205;DHT22;6667;52.634;9.226;2022-11-14T15:56:56;7.60;99.90
13205;DHT22;6667;52.634;9.226;2022-11-14T15:59:23;7.60;99.90
13205;DHT22;6667;52.634;9.226;2022-11-14T16:01:55;7.60;99.90
13205;DHT22;6667;52.634;9.226;2022-11-14T16:04:27;7.60;99.90
13205;DHT22;6667;52.634;9.226;2022-11-14T16:06:54;7.60;99.90
13205;DHT22;6667;52.634;9.226;2022-11-14T16:09:21;7.60;99.90
13205;DHT22;6667;52.634;9.226;2022-11-14T16:11:48;7.60;99.90
13205;DHT22;6667;52.634;9.226;2022-11-14T16:14:15;7.60;99.90
13205;DHT22;6667;52.634;9.226;2022-11-14T16:16:41;7.50;99.90
13205;DHT22;6667;52.634;9.226;2022-11-14T16:19:12;7.50;99.90
13205;DHT22;6667;52.634;9.226;2022-11-14T16:21:39;7.50;99.90
13205;DHT22;6667;52.634;9.226;2022-11-14T16:24:12;7.40;99.90
13205;DHT22;6667;52.634;9.226;2022-11-14T16:26:39;7.50;99.90
13205;DHT22;6667;52.634;9.226;2022-11-14T16:29:06;7.40;99.90
13205;DHT22;6667;52.634;9.226;2022-11-14T16:31:33;7.40;99.90
13205;DHT22;6667;52.634;9.226;2022-11-14T16:34:00;7.40;99.90
13205;DHT22;6667;52.634;9.226;2022-11-14T16:36:28;7.40;99.90
13205;DHT22;6667;52.634;9.226;2022-11-14T16:38:58;7.40;99.90
13205;DHT22;6667;52.634;9.226;2022-11-14T16:41:25;7.40;99.90
13205;DHT22;6667;52.634;9.226;2022-11-14T16:43:52;7.40;99.90
13205;DHT22;6667;52.634;9.226;2022-11-14T16:46:20;7.40;99.90
13205;DHT22;6667;52.634;9.226;2022-11-14T16:48:46;7.40;99.90
13205;DHT22;6667;52.634;9.226;2022-11-14T16:51:13;7.40;99.90
13205;DHT22;6667;52.634;9.226;2022-11-14T16:53:41;7.30;99.90
13205;DHT22;6667;52.634;9.226;2022-11-14T16:56:10;7.40;99.90
13205;DHT22;6667;52.634;9.226;2022-11-14T16:58:38;7.30;99.90
13205;DHT22;6667;52.634;9.226;2022-11-14T17:01:06;7.30;99.90
13205;DHT22;6667;52.634;9.226;2022-11-14T17:03:33;7.30;99.90
13205;DHT22;6667;52.634;9.226;2022-11-14T17:06:00;7.30;99.90
13205;DHT22;6667;52.634;9.226;2022-11-14T17:08:27;7.30;99.90
13205;DHT22;6667;52.634;9.226;2022-11-14T17:10:55;7.30;99.90
13205;DHT22;6667;52.634;9.226;2022-11-14T17:13:21;7.30;99.90
13205;DHT22;6667;52.634;9.226;2022-11-14T17:15:49;7.30;99.90
13205;DHT22;6667;52.634;9.226;2022-11-14T17:18:16;7.30;99.90
13205;DHT22;6667;52.634;9.226;2022-11-14T17:20:43;7.30;99.90
13205;DHT22;6667;52.634;9.226;2022-11-14T17:23:10;7.30;99.90
13205;DHT22;6667;52.634;9.226;2022-11-14T17:25:36;7.30;99.90
13205;DHT22;6667;52.634;9.226;2022-11-14T17:28:05;7.20;99.90
13205;DHT22;6667;52.634;9.226;2022-11-14T17:30:31;7.30;99.90
13205;DHT22;6667;52.634;9.226;2022-11-14T17:32:58;7.30;99.90
13205;DHT22;6667;52.634;9.226;2022-11-14T17:35:25;7.30;99.90
13205;DHT22;6667;52.634;9.226;2022-11-14T17:37:51;7.30;99.90
13205;DHT22;6667;52.634;9.226;2022-11-14T17:40:18;7.30;99.90
13205;DHT22;6667;52.634;9.226;2022-11-14T17:42:45;7.30;99.90
13205;DHT22;6667;52.634;9.226;2022-11-14T17:45:13;7.40;99.90
13205;DHT22;6667;52.634;9.226;2022-11-14T17:47:40;7.30;99.90
13205;DHT22;6667;52.634;9.226;2022-11-14T17:50:07;7.30;99.90
13205;DHT22;6667;52.634;9.226;2022-11-14T17:52:34;7.30;99.90
13205;DHT22;6667;52.634;9.226;2022-11-14T17:55:01;7.40;99.90
13205;DHT22;6667;52.634;9.226;2022-11-14T17:57:28;7.40;99.90
13205;DHT22;6667;52.634;9.226;2022-11-14T17:59:55;7.40;99.90
13205;DHT22;6667;52.634;9.226;2022-11-14T18:02:23;7.40;99.90
13205;DHT22;6667;52.634;9.226;2022-11-14T18:04:50;7.40;99.90
13205;DHT22;6667;52.634;9.226;2022-11-14T18:07:17;7.40;99.90
13205;DHT22;6667;52.634;9.226;2022-11-14T18:09:45;7.40;99.90
13205;DHT22;6667;52.634;9.226;2022-11-14T18:12:11;7.40;99.90
13205;DHT22;6667;52.634;9.226;2022-11-14T18:14:38;7.30;99.90
13205;DHT22;6667;52.634;9.226;2022-11-14T18:17:05;7.30;99.90
13205;DHT22;6667;52.634;9.226;2022-11-14T18:19:33;7.30;99.90
13205;DHT22;6667;52.634;9.226;2022-11-14T18:22:01;7.30;99.90
13205;DHT22;6667;52.634;9.226;2022-11-14T18:24:28;7.20;99.90
13205;DHT22;6667;52.634;9.226;2022-11-14T18:26:54;7.30;99.90
13205;DHT22;6667;52.634;9.226;2022-11-14T18:29:23;7.30;99.90
13205;DHT22;6667;52.634;9.226;2022-11-14T18:31:50;7.20;99.90
13205;DHT22;6667;52.634;9.226;2022-11-14T18:34:16;7.20;99.90
13205;DHT22;6667;52.634;9.226;2022-11-14T18:36:45;7.30;99.90
13205;DHT22;6667;52.634;9.226;2022-11-14T18:39:12;7.40;99.90
13205;DHT22;6667;52.634;9.226;2022-11-14T18:41:38;7.30;99.90
13205;DHT22;6667;52.634;9.226;2022-11-14T18:44:05;7.30;99.90
13205;DHT22;6667;52.634;9.226;2022-11-14T18:46:32;7.30;99.90
13205;DHT22;6667;52.634;9.226;2022-11-14T18:48:58;7.30;99.90
13205;DHT22;6667;52.634;9.226;2022-11-14T18:51:27;7.20;99.90
13205;DHT22;6667;52.634;9.226;2022-11-14T18:53:57;7.20;99.90
13205;DHT22;6667;52.634;9.226;2022-11-14T18:56:24;7.10;99.90
13205;DHT22;6667;52.634;9.226;2022-11-14T18:58:52;7.10;99.90
13205;DHT22;6667;52.634;9.226;2022-11-14T19:01:21;7.10;99.90
13205;DHT22;6667;52.634;9.226;2022-11-14T19:03:50;7.00;99.90
13205;DHT22;6667;52.634;9.226;2022-11-14T19:06:17;7.00;99.90
13205;DHT22;6667;52.634;9.226;2022-11-14T19:08:44;7.00;99.90
13205;DHT22;6667;52.634;9.226;2022-11-14T19:11:13;7.00;99.90
13205;DHT22;6667;52.634;9.226;2022-11-14T19:13:54;7.00;99.90
13205;DHT22;6667;52.634;9.226;2022-11-14T19:16:21;7.00;99.90
13205;DHT22;6667;52.634;9.226;2022-11-14T19:18:48;7.00;99.90
13205;DHT22;6667;52.634;9.226;2022-11-14T19:21:14;7.00;99.90
13205;DHT22;6667;52.634;9.226;2022-11-14T19:23:41;7.00;99.90
13205;DHT22;6667;52.634;9.226;2022-11-14T19:26:08;7.00;99.90
13205;DHT22;6667;52.634;9.226;2022-11-14T19:28:36;7.00;99.90
13205;DHT22;6667;52.634;9.226;2022-11-14T19:31:04;7.00;99.90
13205;DHT22;6667;52.634;9.226;2022-11-14T19:33:31;7.00;99.90
13205;DHT22;6667;52.634;9.226;2022-11-14T19:36:03;7.00;99.90
13205;DHT22;6667;52.634;9.226;2022-11-14T19:38:30;7.00;99.90
13205;DHT22;6667;52.634;9.226;2022-11-14T19:40:57;6.90;99.90
13205;DHT22;6667;52.634;9.226;2022-11-14T19:43:24;6.90;99.90
13205;DHT22;6667;52.634;9.226;2022-11-14T19:45:53;7.00;99.90
13205;DHT22;6667;52.634;9.226;2022-11-14T19:48:22;7.00;99.90
13205;DHT22;6667;52.634;9.226;2022-11-14T19:50:57;7.00;99.90
13205;DHT22;6667;52.634;9.226;2022-11-14T19:53:24;7.00;99.90
13205;DHT22;6667;52.634;9.226;2022-11-14T19:55:51;7.00;99.90
13205;DHT22;6667;52.634;9.226;2022-11-14T19:58:18;7.00;99.90
13205;DHT22;6667;52.634;9.226;2022-11-14T20:00:44;7.00;99.90
13205;DHT22;6667;52.634;9.226;2022-11-14T20:03:12;7.00;99.90
13205;DHT22;6667;52.634;9.226;2022-11-14T20:05:39;7.00;99.90
13205;DHT22;6667;52.634;9.226;2022-11-14T20:08:06;7.10;99.90
13205;DHT22;6667;52.634;9.226;2022-11-14T20:10:32;7.20;99.90
13205;DHT22;6667;52.634;9.226;2022-11-14T20:13:11;7.30;99.90
13205;DHT22;6667;52.634;9.226;2022-11-14T20:15:38;7.30;99.90
13205;DHT22;6667;52.634;9.226;2022-11-14T20:18:05;7.30;99.90
13205;DHT22;6667;52.634;9.226;2022-11-14T20:20:34;7.30;99.90
13205;DHT22;6667;52.634;9.226;2022-11-14T20:23:01;7.40;99.90
13205;DHT22;6667;52.634;9.226;2022-11-14T20:25:27;7.40;99.90
13205;DHT22;6667;52.634;9.226;2022-11-14T20:27:54;7.40;99.90
13205;DHT22;6667;52.634;9.226;2022-11-14T20:30:21;7.50;99.90
13205;DHT22;6667;52.634;9.226;2022-11-14T20:32:48;7.50;99.90
13205;DHT22;6667;52.634;9.226;2022-11-14T20:35:15;7.40;99.90
13205;DHT22;6667;52.634;9.226;2022-11-14T20:37:43;7.40;99.90
13205;DHT22;6667;52.634;9.226;2022-11-14T20:40:11;7.40;99.90
13205;DHT22;6667;52.634;9.226;2022-11-14T20:42:38;7.50;99.90
13205;DHT22;6667;52.634;9.226;2022-11-14T20:45:05;7.50;99.90
13205;DHT22;6667;52.634;9.226;2022-11-14T20:47:32;7.50;99.90
13205;DHT22;6667;52.634;9.226;2022-11-14T20:49:58;7.50;99.90
13205;DHT22;6667;52.634;9.226;2022-11-14T20:52:25;7.60;99.90
13205;DHT22;6667;52.634;9.226;2022-11-14T20:57:34;7.60;99.90
13205;DHT22;6667;52.634;9.226;2022-11-14T21:00:01;7.60;99.90
13205;DHT22;6667;52.634;9.226;2022-11-14T21:02:28;7.70;1.00
13205;DHT22;6667;52.634;9.226;2022-11-14T21:04:55;7.70;99.90
13205;DHT22;6667;52.634;9.226;2022-11-14T21:07:21;7.80;1.00
13205;DHT22;6667;52.634;9.226;2022-11-14T21:09:48;7.80;1.00
13205;DHT22;6667;52.634;9.226;2022-11-14T21:12:36;7.80;1.00
13205;DHT22;6667;52.634;9.226;2022-11-14T21:15:03;7.90;1.00
13205;DHT22;6667;52.634;9.226;2022-11-14T21:17:31;7.90;99.90
13205;DHT22;6667;52.634;9.226;2022-11-14T21:19:58;7.90;1.00
13205;DHT22;6667;52.634;9.226;2022-11-14T21:22:25;8.00;92.80
13205;DHT22;6667;52.634;9.226;2022-11-14T21:24:52;8.00;99.90
13205;DHT22;6667;52.634;9.226;2022-11-14T21:27:18;8.10;1.00
13205;DHT22;6667;52.634;9.226;2022-11-14T21:29:46;8.00;1.00
13205;DHT22;6667;52.634;9.226;2022-11-14T21:32:13;8.10;1.00
13205;DHT22;6667;52.634;9.226;2022-11-14T21:34:40;8.10;99.90
13205;DHT22;6667;52.634;9.226;2022-11-14T21:37:06;8.10;99.90
13205;DHT22;6667;52.634;9.226;2022-11-14T21:39:33;8.10;90.70
13205;DHT22;6667;52.634;9.226;2022-11-14T21:42:00;8.10;99.90
13205;DHT22;6667;52.634;9.226;2022-11-14T21:44:26;8.20;3.30
13205;DHT22;6667;52.634;9.226;2022-11-14T21:46:55;8.20;1.00
